createdAt,value
2019-05-22T00:01:20.494Z,12.30
2019-05-22T00:03:57.696Z,12.30
2019-05-22T00:06:30.359Z,12.30
2019-05-22T00:08:59.526Z,12.20
2019-05-22T00:11:29.839Z,12.20
2019-05-22T00:14:00.271Z,12.20
2019-05-22T00:16:30.810Z,12.20
2019-05-22T00:18:59.914Z,12.20
2019-05-22T00:21:30.491Z,12.20
2019-05-22T00:24:00.092Z,12.20
2019-05-22T00:26:49.724Z,12.10
2019-05-22T00:29:19.715Z,12.10
2019-05-22T00:31:49.116Z,12.10
2019-05-22T00:34:18.838Z,12.10
2019-05-22T00:36:48.963Z,12.10
2019-05-22T00:39:19.015Z,12.10
2019-05-22T00:41:51.142Z,12.00
2019-05-22T00:44:21.028Z,12.00
2019-05-22T00:46:52.698Z,12.00
2019-05-22T00:49:24.671Z,12.00
2019-05-22T00:52:13.042Z,12.00
2019-05-22T00:55:01.889Z,12.00
2019-05-22T00:57:35.759Z,12.00
2019-05-22T01:00:24.818Z,11.90
2019-05-22T01:02:56.223Z,11.90
2019-05-22T01:05:27.783Z,11.80
2019-05-22T01:07:57.611Z,11.80
2019-05-22T01:10:30.190Z,11.80
2019-05-22T01:13:04.369Z,11.80
2019-05-22T01:15:35.089Z,11.80
2019-05-22T01:18:07.719Z,11.70
2019-05-22T01:20:38.075Z,11.70
2019-05-22T01:23:08.842Z,11.70
2019-05-22T01:25:38.846Z,11.70
2019-05-22T01:28:09.119Z,11.60
2019-05-22T01:30:45.582Z,11.60
2019-05-22T01:33:20.216Z,11.60
2019-05-22T01:36:07.519Z,11.60
2019-05-22T01:38:38.512Z,11.50
2019-05-22T01:41:14.755Z,11.50
2019-05-22T01:43:43.661Z,11.50
2019-05-22T01:46:14.134Z,11.50
2019-05-22T01:48:45.204Z,11.50
2019-05-22T01:51:15.724Z,11.40
2019-05-22T01:53:46.754Z,11.40
2019-05-22T01:56:18.855Z,11.40
2019-05-22T01:58:48.005Z,11.40
2019-05-22T02:01:22.079Z,11.40
2019-05-22T02:03:54.298Z,11.30
2019-05-22T02:06:24.869Z,11.30
2019-05-22T02:09:14.154Z,11.30
2019-05-22T02:11:45.671Z,11.30
2019-05-22T02:14:17.866Z,11.30
2019-05-22T02:16:56.580Z,11.30
2019-05-22T02:19:20.707Z,11.30
2019-05-22T02:21:50.279Z,11.30
2019-05-22T02:24:20.234Z,11.30
2019-05-22T02:26:49.188Z,11.30
2019-05-22T02:29:21.313Z,11.30
2019-05-22T02:31:55.583Z,11.30
2019-05-22T02:34:23.571Z,11.20
2019-05-22T02:36:53.684Z,11.20
2019-05-22T02:39:29.398Z,11.20
2019-05-22T02:42:03.192Z,11.20
2019-05-22T02:44:33.356Z,11.20
2019-05-22T02:47:18.013Z,11.20
2019-05-22T02:49:35.839Z,11.10
2019-05-22T02:52:06.671Z,11.10
2019-05-22T02:54:36.639Z,11.10
2019-05-22T02:57:06.696Z,11.10
2019-05-22T02:59:35.744Z,11.10
2019-05-22T03:02:06.555Z,11.10
2019-05-22T03:04:59.021Z,11.10
2019-05-22T03:07:28.607Z,11.10
2019-05-22T03:09:58.077Z,11.10
2019-05-22T03:12:30.482Z,11.10
2019-05-22T03:15:01.180Z,11.10
2019-05-22T03:17:32.089Z,11.10
2019-05-22T03:20:04.490Z,11.10
2019-05-22T03:22:40.446Z,11.10
2019-05-22T03:25:15.824Z,11.10
2019-05-22T03:27:47.818Z,11.10
2019-05-22T03:30:21.453Z,11.00
2019-05-22T03:32:52.080Z,11.10
2019-05-22T03:35:22.527Z,11.10
2019-05-22T03:37:53.276Z,11.10
2019-05-22T03:40:22.739Z,11.10
2019-05-22T03:42:53.794Z,11.10
2019-05-22T03:45:23.683Z,11.20
2019-05-22T03:47:54.196Z,11.20
2019-05-22T03:50:23.986Z,11.20
2019-05-22T03:52:56.777Z,11.10
2019-05-22T03:55:25.963Z,11.10
2019-05-22T03:57:55.510Z,11.10
2019-05-22T04:00:25.808Z,11.10
2019-05-22T04:02:56.689Z,11.10
2019-05-22T04:05:26.360Z,11.10
2019-05-22T04:07:57.484Z,11.10
2019-05-22T04:10:28.950Z,11.10
2019-05-22T04:12:57.894Z,11.10
2019-05-22T04:15:27.563Z,11.10
2019-05-22T04:17:59.731Z,11.10
2019-05-22T04:20:30.819Z,11.10
2019-05-22T04:23:01.358Z,11.10
2019-05-22T04:25:30.348Z,11.10
2019-05-22T04:27:59.402Z,11.10
2019-05-22T04:30:29.529Z,11.10
2019-05-22T04:32:58.629Z,11.10
2019-05-22T04:35:28.031Z,11.20
2019-05-22T04:37:57.707Z,11.10
2019-05-22T04:40:54.195Z,11.00
2019-05-22T04:43:26.523Z,11.00
2019-05-22T04:45:56.890Z,11.00
2019-05-22T04:48:27.083Z,11.00
2019-05-22T04:50:59.190Z,11.00
2019-05-22T04:53:29.216Z,11.00
2019-05-22T04:55:58.234Z,10.90
2019-05-22T04:58:30.201Z,11.00
2019-05-22T05:00:59.311Z,10.90
2019-05-22T05:03:29.358Z,11.00
2019-05-22T05:05:58.967Z,11.10
2019-05-22T05:08:29.074Z,11.00
2019-05-22T05:11:00.515Z,11.00
2019-05-22T05:13:29.403Z,11.00
2019-05-22T05:15:58.296Z,11.10
2019-05-22T05:18:27.976Z,11.10
2019-05-22T05:20:56.952Z,11.10
2019-05-22T05:23:26.466Z,11.10
2019-05-22T05:25:55.306Z,11.10
2019-05-22T05:28:24.754Z,11.20
2019-05-22T05:30:54.220Z,11.20
2019-05-22T05:33:23.745Z,11.30
2019-05-22T05:35:52.690Z,11.30
2019-05-22T05:38:31.978Z,11.30
2019-05-22T05:41:01.857Z,11.20
2019-05-22T05:43:31.031Z,11.30
2019-05-22T05:46:00.163Z,11.20
2019-05-22T05:48:31.091Z,11.20
2019-05-22T05:51:39.150Z,11.10
2019-05-22T05:54:15.188Z,11.10
2019-05-22T05:56:50.219Z,11.10
2019-05-22T05:59:22.592Z,11.10
2019-05-22T06:01:58.595Z,11.10
2019-05-22T06:04:35.108Z,11.10
2019-05-22T06:07:18.982Z,11.00
2019-05-22T06:09:54.407Z,11.00
2019-05-22T06:12:23.325Z,10.90
2019-05-22T06:14:54.106Z,10.90
2019-05-22T06:18:16.203Z,10.90
2019-05-22T06:21:02.495Z,10.80
2019-05-22T06:23:54.608Z,10.90
2019-05-22T06:27:08.244Z,10.80
2019-05-22T06:30:00.269Z,10.90
2019-05-22T06:33:13.565Z,10.90
2019-05-22T06:35:44.456Z,10.90
2019-05-22T06:38:49.299Z,10.90
2019-05-22T06:41:18.965Z,10.90
2019-05-22T06:44:43.938Z,10.90
2019-05-22T06:47:24.290Z,10.90
2019-05-22T06:49:57.765Z,10.80
2019-05-22T06:52:27.429Z,10.90
2019-05-22T06:54:57.256Z,10.90
2019-05-22T06:57:32.053Z,10.80
2019-05-22T07:00:14.232Z,10.80
2019-05-22T07:02:35.513Z,10.80
2019-05-22T07:05:06.360Z,10.80
2019-05-22T07:07:35.307Z,10.80
2019-05-22T07:10:06.514Z,10.80
2019-05-22T07:12:36.915Z,10.80
2019-05-22T07:15:50.259Z,10.80
2019-05-22T07:18:22.599Z,10.80
2019-05-22T07:20:52.248Z,10.80
2019-05-22T07:23:34.909Z,10.90
2019-05-22T07:26:04.309Z,10.90
2019-05-22T07:28:33.519Z,10.90
2019-05-22T07:31:04.379Z,11.00
2019-05-22T07:33:33.735Z,11.10
2019-05-22T07:36:10.266Z,11.10
2019-05-22T07:38:35.189Z,11.10
2019-05-22T07:41:05.253Z,11.20
2019-05-22T07:43:34.215Z,11.20
2019-05-22T07:46:03.572Z,11.30
2019-05-22T07:48:32.595Z,11.20
2019-05-22T07:51:04.466Z,11.30
2019-05-22T07:53:33.416Z,11.30
2019-05-22T07:56:06.017Z,11.30
2019-05-22T07:58:35.984Z,11.30
2019-05-22T08:01:06.446Z,11.40
2019-05-22T08:03:37.442Z,11.50
2019-05-22T08:06:08.393Z,11.50
2019-05-22T08:08:38.369Z,11.50
2019-05-22T08:11:09.504Z,11.50
2019-05-22T08:13:39.851Z,11.50
2019-05-22T08:16:09.823Z,11.50
2019-05-22T08:18:41.358Z,11.40
2019-05-22T08:21:11.628Z,11.40
2019-05-22T08:23:40.959Z,11.40
2019-05-22T08:26:11.561Z,11.40
2019-05-22T08:28:40.915Z,11.40
2019-05-22T08:31:10.840Z,11.40
2019-05-22T08:33:39.814Z,11.50
2019-05-22T08:36:09.219Z,11.50
2019-05-22T08:38:39.184Z,11.50
2019-05-22T08:41:10.958Z,11.50
2019-05-22T08:44:11.227Z,11.40
2019-05-22T08:46:13.407Z,11.50
2019-05-22T08:48:47.942Z,11.50
2019-05-22T08:51:15.871Z,11.50
2019-05-22T08:53:47.926Z,11.50
2019-05-22T08:56:16.300Z,11.50
2019-05-22T08:58:46.244Z,11.50
2019-05-22T09:01:15.710Z,11.50
2019-05-22T09:03:46.545Z,11.40
2019-05-22T09:06:15.681Z,11.40
2019-05-22T09:08:44.611Z,11.40
2019-05-22T09:11:13.666Z,11.30
2019-05-22T09:13:42.905Z,11.30
2019-05-22T09:16:14.448Z,11.30
2019-05-22T09:18:43.664Z,11.30
2019-05-22T09:21:13.402Z,11.30
2019-05-22T09:23:42.731Z,11.20
2019-05-22T09:26:11.591Z,11.20
2019-05-22T09:28:40.619Z,11.30
2019-05-22T09:31:09.609Z,11.30
2019-05-22T09:33:39.467Z,11.30
2019-05-22T09:36:09.618Z,11.40
2019-05-22T09:38:38.678Z,11.40
2019-05-22T09:41:07.717Z,11.40
2019-05-22T09:43:36.919Z,11.50
2019-05-22T09:46:06.658Z,11.50
2019-05-22T09:48:36.087Z,11.60
2019-05-22T09:51:05.122Z,11.70
2019-05-22T09:53:34.911Z,11.80
2019-05-22T09:56:04.622Z,12.00
2019-05-22T09:58:33.661Z,12.00
2019-05-22T10:01:04.331Z,12.00
2019-05-22T10:03:34.131Z,12.00
2019-05-22T10:06:03.271Z,12.00
2019-05-22T10:08:32.435Z,12.00
2019-05-22T10:11:01.315Z,11.90
2019-05-22T10:13:30.861Z,12.00
2019-05-22T10:15:59.870Z,12.00
2019-05-22T10:18:29.038Z,12.10
2019-05-22T10:20:58.259Z,12.20
2019-05-22T10:23:28.547Z,12.40
2019-05-22T10:25:57.783Z,12.50
2019-05-22T10:28:27.304Z,12.60
2019-05-22T10:30:57.427Z,12.70
2019-05-22T10:33:27.378Z,12.70
2019-05-22T10:35:56.547Z,12.80
2019-05-22T10:38:25.423Z,12.80
2019-05-22T10:40:58.506Z,12.80
2019-05-22T10:43:25.172Z,12.70
2019-05-22T10:45:54.431Z,12.60
2019-05-22T10:48:23.709Z,12.50
2019-05-22T10:50:52.589Z,12.50
2019-05-22T10:53:33.035Z,12.50
2019-05-22T10:55:52.469Z,12.60
2019-05-22T10:58:21.531Z,12.70
2019-05-22T11:00:50.371Z,12.80
2019-05-22T11:03:19.351Z,13.00
2019-05-22T11:06:05.888Z,13.10
2019-05-22T11:08:19.637Z,13.30
2019-05-22T11:10:48.552Z,13.40
2019-05-22T11:13:18.239Z,13.50
2019-05-22T11:15:47.267Z,13.50
2019-05-22T11:18:16.610Z,13.70
2019-05-22T11:20:45.914Z,13.80
2019-05-22T11:23:15.499Z,13.90
2019-05-22T11:25:44.476Z,14.00
2019-05-22T11:28:13.515Z,14.00
2019-05-22T11:30:42.579Z,14.10
2019-05-22T11:33:12.260Z,14.20
2019-05-22T11:35:41.618Z,14.40
2019-05-22T11:38:10.838Z,14.30
2019-05-22T11:40:40.621Z,14.20
2019-05-22T11:43:11.338Z,14.20
2019-05-22T11:45:40.668Z,14.10
2019-05-22T11:48:10.022Z,13.90
2019-05-22T11:50:39.686Z,13.90
2019-05-22T11:53:08.959Z,13.80
2019-05-22T11:55:45.429Z,13.80
2019-05-22T11:58:10.352Z,13.80
2019-05-22T12:00:41.688Z,13.80
2019-05-22T12:03:11.507Z,14.00
2019-05-22T12:05:40.686Z,14.10
2019-05-22T12:08:11.704Z,14.40
2019-05-22T12:10:40.802Z,14.70
2019-05-22T12:13:10.829Z,14.90
2019-05-22T12:15:40.362Z,15.00
2019-05-22T12:18:10.716Z,15.10
2019-05-22T12:20:40.056Z,15.00
2019-05-22T12:23:09.212Z,15.10
2019-05-22T12:25:38.325Z,15.10
2019-05-22T12:28:07.482Z,15.20
2019-05-22T12:30:37.110Z,15.10
2019-05-22T12:33:13.350Z,15.10
2019-05-22T12:35:41.129Z,15.30
2019-05-22T12:38:11.559Z,15.60
2019-05-22T12:40:40.597Z,15.90
2019-05-22T12:43:11.232Z,16.20
2019-05-22T12:45:40.390Z,16.20
2019-05-22T12:48:10.099Z,15.90
2019-05-22T12:50:40.055Z,15.60
2019-05-22T12:53:11.275Z,15.50
2019-05-22T12:55:40.864Z,15.40
2019-05-22T12:58:10.411Z,15.30
2019-05-22T13:00:40.072Z,15.30
2019-05-22T13:03:09.338Z,15.30
2019-05-22T13:05:39.260Z,15.50
2019-05-22T13:08:09.931Z,15.70
2019-05-22T13:10:39.412Z,15.90
2019-05-22T13:13:08.893Z,16.40
2019-05-22T13:15:39.324Z,16.60
2019-05-22T13:18:10.689Z,16.90
2019-05-22T13:20:44.633Z,17.20
2019-05-22T13:23:15.450Z,17.40
2019-05-22T13:25:46.049Z,17.10
2019-05-22T13:28:18.914Z,16.90
2019-05-22T13:30:52.754Z,16.80
2019-05-22T13:33:25.919Z,16.90
2019-05-22T13:35:55.939Z,17.20
2019-05-22T13:38:25.519Z,17.10
2019-05-22T13:40:55.159Z,17.10
2019-05-22T13:43:25.319Z,17.10
2019-05-22T13:45:54.706Z,17.00
2019-05-22T13:48:23.739Z,16.90
2019-05-22T13:50:53.000Z,16.80
2019-05-22T13:53:22.820Z,16.90
2019-05-22T13:55:52.453Z,17.20
2019-05-22T13:58:23.343Z,17.50
2019-05-22T14:00:52.429Z,17.90
2019-05-22T14:03:21.956Z,18.20
2019-05-22T14:05:52.282Z,18.30
2019-05-22T14:08:22.298Z,18.10
2019-05-22T14:10:52.009Z,18.00
2019-05-22T14:13:23.216Z,18.00
2019-05-22T14:15:56.497Z,18.30
2019-05-22T14:18:23.014Z,18.30
2019-05-22T14:20:52.190Z,18.30
2019-05-22T14:23:21.631Z,18.40
2019-05-22T14:25:51.451Z,18.40
2019-05-22T14:28:21.566Z,18.10
2019-05-22T14:30:52.796Z,17.80
2019-05-22T14:33:22.216Z,17.70
2019-05-22T14:35:53.448Z,17.60
2019-05-22T14:38:22.530Z,17.40
2019-05-22T14:40:51.595Z,17.30
2019-05-22T14:43:20.750Z,17.40
2019-05-22T14:45:49.689Z,17.80
2019-05-22T14:48:19.151Z,18.20
2019-05-22T14:50:48.328Z,18.50
2019-05-22T14:53:17.956Z,18.80
2019-05-22T14:55:47.959Z,19.10
2019-05-22T14:58:17.363Z,19.30
2019-05-22T15:00:47.882Z,19.40
2019-05-22T15:03:17.996Z,19.50
2019-05-22T15:05:46.957Z,19.40
2019-05-22T15:08:16.223Z,19.40
2019-05-22T15:10:46.155Z,19.10
2019-05-22T15:13:15.215Z,19.00
2019-05-22T15:15:44.326Z,18.90
2019-05-22T15:18:13.315Z,18.80
2019-05-22T15:21:06.014Z,18.80
2019-05-22T15:23:35.284Z,18.90
2019-05-22T15:26:04.466Z,18.90
2019-05-22T15:28:33.515Z,18.90
2019-05-22T15:31:02.916Z,18.90
2019-05-22T15:33:34.809Z,18.80
2019-05-22T15:36:06.959Z,18.80
2019-05-22T15:38:38.655Z,18.90
2019-05-22T15:41:29.390Z,18.90
2019-05-22T15:43:59.311Z,19.00
2019-05-22T15:46:29.368Z,19.00
2019-05-22T15:48:59.679Z,19.00
2019-05-22T15:51:34.395Z,19.00
2019-05-22T15:54:06.195Z,18.70
2019-05-22T15:56:37.910Z,18.30
2019-05-22T15:59:10.180Z,18.40
2019-05-22T16:01:39.648Z,18.50
2019-05-22T16:04:11.548Z,18.60
2019-05-22T16:06:40.588Z,18.80
2019-05-22T16:09:13.231Z,18.90
2019-05-22T16:11:42.793Z,19.00
2019-05-22T16:14:13.114Z,19.00
2019-05-22T16:16:45.050Z,19.10
2019-05-22T16:19:14.383Z,19.30
2019-05-22T16:21:47.241Z,19.30
2019-05-22T16:24:17.028Z,19.30
2019-05-22T16:26:46.094Z,19.30
2019-05-22T16:29:16.168Z,19.20
2019-05-22T16:31:46.467Z,19.20
2019-05-22T16:34:16.510Z,19.10
2019-05-22T16:36:46.096Z,19.10
2019-05-22T16:39:16.427Z,19.20
2019-05-22T16:41:46.538Z,19.30
2019-05-22T16:44:16.595Z,19.30
2019-05-22T16:46:53.871Z,19.30
2019-05-22T16:49:23.358Z,19.10
2019-05-22T16:51:52.344Z,19.00
2019-05-22T16:54:21.586Z,18.90
2019-05-22T16:56:51.262Z,18.90
2019-05-22T16:59:20.536Z,18.70
2019-05-22T17:01:59.977Z,18.50
2019-05-22T17:04:21.166Z,18.40
2019-05-22T17:06:50.393Z,18.50
2019-05-22T17:09:21.524Z,18.50
2019-05-22T17:11:51.043Z,18.60
2019-05-22T17:14:21.624Z,18.40
2019-05-22T17:16:51.697Z,18.40
2019-05-22T17:19:26.944Z,18.40
2019-05-22T17:21:52.512Z,18.30
2019-05-22T17:24:22.575Z,18.30
2019-05-22T17:26:53.649Z,18.30
2019-05-22T17:29:24.487Z,18.30
2019-05-22T17:31:54.219Z,18.20
2019-05-22T17:34:33.476Z,18.10
2019-05-22T17:37:08.117Z,18.10
2019-05-22T17:39:39.404Z,18.00
2019-05-22T17:42:12.047Z,17.90
2019-05-22T17:44:43.951Z,17.70
2019-05-22T17:47:13.483Z,17.60
2019-05-22T17:49:43.854Z,17.50
2019-05-22T17:52:14.530Z,17.50
2019-05-22T17:54:44.377Z,17.50
2019-05-22T17:57:13.907Z,17.60
2019-05-22T17:59:43.082Z,17.60
2019-05-22T18:02:13.911Z,17.60
2019-05-22T18:04:42.971Z,17.50
2019-05-22T18:07:12.399Z,17.50
2019-05-22T18:09:41.378Z,17.50
2019-05-22T18:12:11.051Z,17.40
2019-05-22T18:14:40.082Z,17.30
2019-05-22T18:17:10.122Z,17.30
2019-05-22T18:19:39.638Z,17.20
2019-05-22T18:22:09.986Z,17.10
2019-05-22T18:24:39.005Z,17.10
2019-05-22T18:27:08.418Z,17.00
2019-05-22T18:29:37.583Z,16.80
2019-05-22T18:32:07.898Z,16.70
2019-05-22T18:34:37.023Z,16.50
2019-05-22T18:37:05.886Z,16.30
2019-05-22T18:39:35.745Z,16.20
2019-05-22T18:42:05.260Z,16.00
2019-05-22T18:44:34.531Z,15.90
2019-05-22T18:47:04.213Z,15.80
2019-05-22T18:49:33.271Z,15.70
2019-05-22T18:52:02.695Z,15.50
2019-05-22T18:54:31.631Z,15.40
2019-05-22T18:57:00.678Z,15.30
2019-05-22T18:59:29.615Z,15.20
2019-05-22T19:02:16.618Z,15.20
2019-05-22T19:04:45.525Z,15.00
2019-05-22T19:07:15.712Z,14.80
2019-05-22T19:09:45.744Z,14.70
2019-05-22T19:12:14.911Z,14.60
2019-05-22T19:14:44.277Z,14.50
2019-05-22T19:17:14.766Z,14.40
2019-05-22T19:19:45.869Z,14.30
2019-05-22T19:22:16.369Z,14.20
2019-05-22T19:24:45.392Z,14.20
2019-05-22T19:27:14.632Z,14.10
2019-05-22T19:29:43.941Z,14.10
2019-05-22T19:32:13.145Z,13.90
2019-05-22T19:34:42.548Z,13.80
2019-05-22T19:37:12.532Z,13.70
2019-05-22T19:39:42.051Z,13.60
2019-05-22T19:42:11.549Z,13.50
2019-05-22T19:44:40.688Z,13.50
2019-05-22T19:47:09.714Z,13.50
2019-05-22T19:49:38.993Z,13.40
2019-05-22T19:52:09.114Z,13.30
2019-05-22T19:54:38.366Z,13.30
2019-05-22T19:57:08.991Z,13.30
2019-05-22T19:59:38.298Z,13.30
2019-05-22T20:02:07.599Z,13.20
2019-05-22T20:04:37.231Z,13.20
2019-05-22T20:07:07.501Z,13.10
2019-05-22T20:09:36.740Z,13.10
2019-05-22T20:12:07.408Z,13.00
2019-05-22T20:14:37.033Z,12.90
2019-05-22T20:17:06.484Z,12.80
2019-05-22T20:19:35.849Z,12.80
2019-05-22T20:22:07.018Z,12.70
2019-05-22T20:24:36.663Z,12.60
2019-05-22T20:27:09.529Z,12.60
2019-05-22T20:29:37.882Z,12.50
2019-05-22T20:32:10.118Z,12.40
2019-05-22T20:34:40.474Z,12.40
2019-05-22T20:37:10.134Z,12.30
2019-05-22T20:39:39.505Z,12.20
2019-05-22T20:42:09.230Z,12.10
2019-05-22T20:44:39.092Z,12.00
2019-05-22T20:47:10.478Z,11.90
2019-05-22T20:49:41.973Z,11.90
2019-05-22T20:52:11.788Z,11.90
2019-05-22T20:54:43.368Z,11.80
2019-05-22T20:57:12.705Z,11.80
2019-05-22T20:59:44.199Z,11.80
2019-05-22T21:02:14.271Z,11.70
2019-05-22T21:04:46.014Z,11.60
2019-05-22T21:07:18.043Z,11.60
2019-05-22T21:09:47.307Z,11.50
2019-05-22T21:12:17.859Z,11.50
2019-05-22T21:14:47.725Z,11.40
2019-05-22T21:17:18.050Z,11.30
2019-05-22T21:19:47.487Z,11.30
2019-05-22T21:22:19.645Z,11.20
2019-05-22T21:24:50.717Z,11.30
2019-05-22T21:27:20.094Z,11.10
2019-05-22T21:29:48.907Z,11.10
2019-05-22T21:32:19.010Z,11.00
2019-05-22T21:34:49.213Z,10.90
2019-05-22T21:37:19.594Z,10.80
2019-05-22T21:39:50.344Z,10.70
2019-05-22T21:42:19.336Z,10.80
2019-05-22T21:44:48.474Z,10.80
2019-05-22T21:47:18.779Z,10.70
2019-05-22T21:49:49.614Z,10.70
2019-05-22T21:52:19.536Z,10.70
2019-05-22T21:54:48.504Z,10.60
2019-05-22T21:57:17.782Z,10.60
2019-05-22T21:59:46.736Z,10.60
2019-05-22T22:02:25.012Z,10.50
2019-05-22T22:04:54.330Z,10.50
2019-05-22T22:07:23.735Z,10.40
2019-05-22T22:09:54.166Z,10.30
2019-05-22T22:12:23.843Z,10.30
2019-05-22T22:14:53.151Z,10.30
2019-05-22T22:17:23.811Z,10.30
2019-05-22T22:19:54.585Z,10.20
2019-05-22T22:22:28.245Z,10.20
2019-05-22T22:24:57.473Z,10.10
2019-05-22T22:27:27.220Z,10.00
2019-05-22T22:29:57.467Z,10.00
2019-05-22T22:32:28.610Z,9.90
2019-05-22T22:34:58.046Z,9.90
2019-05-22T22:37:26.947Z,9.90
2019-05-22T22:39:57.163Z,9.90
2019-05-22T22:42:29.072Z,9.90
2019-05-22T22:44:59.056Z,9.80
2019-05-22T22:47:45.250Z,9.80
2019-05-22T22:50:16.491Z,9.80
2019-05-22T22:52:46.091Z,9.70
2019-05-22T22:55:17.395Z,9.70
2019-05-22T22:57:48.543Z,9.60
2019-05-22T23:00:22.799Z,9.60
2019-05-22T23:02:52.944Z,9.60
2019-05-22T23:05:22.124Z,9.60
2019-05-22T23:07:51.395Z,9.50
2019-05-22T23:10:22.920Z,9.50
2019-05-22T23:12:54.120Z,9.40
2019-05-22T23:15:26.062Z,9.30
2019-05-22T23:17:55.587Z,9.20
2019-05-22T23:20:23.090Z,9.10
2019-05-22T23:22:50.594Z,9.00
2019-05-22T23:25:20.044Z,9.00
2019-05-22T23:27:50.910Z,8.90
2019-05-22T23:30:39.656Z,8.90
2019-05-22T23:33:08.622Z,8.80
2019-05-22T23:35:38.311Z,8.90
2019-05-22T23:38:07.310Z,8.90
2019-05-22T23:40:37.318Z,8.90
2019-05-22T23:43:07.335Z,8.90
2019-05-22T23:45:37.448Z,8.90
2019-05-22T23:48:16.171Z,9.00
2019-05-22T23:50:47.196Z,8.90
2019-05-22T23:53:18.481Z,8.90
2019-05-22T23:55:48.769Z,8.90
2019-05-22T23:58:20.157Z,8.70
